Time;durP1;ratioP1;P1;durP2;ratioP2;P2;SDS_P1;SDS_P2;PMS_P1;PMS_P2;Temp;Humidity;BMP_temperature;BMP_pressure;BME280_temperature;BME280_humidity;BME280_pressure;Samples;Min_cycle;Max_cycle;Signal;HPM_P1;HPM_P2
2023/12/14 00:00:10;;;;;;;;;;;7.50;99.90;;;;;;5114763;27;19943;-69
2023/12/14 00:02:35;;;;;;;;;;;7.50;99.90;;;;;;5101821;27;19912;-69
2023/12/14 00:05:01;;;;;;;;;;;7.50;99.90;;;;;;5107794;27;20420;-69
2023/12/14 00:07:26;;;;;;;;;;;7.50;99.90;;;;;;5095950;27;19912;-69
2023/12/14 00:09:52;;;;;;;;;;;7.50;99.90;;;;;;5109068;27;19916;-69
2023/12/14 00:12:17;;;;;;;;;;;7.50;99.90;;;;;;5107857;27;20242;-69
2023/12/14 00:14:43;;;;;;;;;;;7.50;99.90;;;;;;5103835;27;20534;-69
2023/12/14 00:17:08;;;;;;;;;;;7.50;99.90;;;;;;5109171;27;19915;-69
2023/12/14 00:19:34;;;;;;;;;;;7.50;99.90;;;;;;5106105;27;20002;-68
2023/12/14 00:21:59;;;;;;;;;;;7.50;99.90;;;;;;5107675;28;19919;-69
2023/12/14 00:24:25;;;;;;;;;;;7.50;99.90;;;;;;5100370;27;20019;-69
2023/12/14 00:26:50;;;;;;;;;;;7.50;99.90;;;;;;5109501;27;19956;-69
2023/12/14 00:29:16;;;;;;;;;;;7.50;99.90;;;;;;5091525;27;20650;-69
2023/12/14 00:31:41;;;;;;;;;;;7.50;99.90;;;;;;5104093;27;19912;-69
2023/12/14 00:34:07;;;;;;;;;;;7.50;99.90;;;;;;5101451;27;19911;-69
2023/12/14 00:36:32;;;;;;;;;;;7.50;99.90;;;;;;5108811;27;19916;-69
2023/12/14 00:38:58;;;;;;;;;;;7.50;99.90;;;;;;5110961;27;19911;-69
2023/12/14 00:41:23;;;;;;;;;;;7.50;99.90;;;;;;5099621;27;19946;-69
2023/12/14 00:43:49;;;;;;;;;;;7.50;99.90;;;;;;5094710;27;19912;-69
2023/12/14 00:46:14;;;;;;;;;;;7.50;99.90;;;;;;5103298;28;20353;-69
2023/12/14 00:48:40;;;;;;;;;;;7.50;99.90;;;;;;5105427;28;20468;-69
2023/12/14 00:51:05;;;;;;;;;;;7.50;99.90;;;;;;5106232;28;19912;-69
2023/12/14 00:53:31;;;;;;;;;;;7.50;99.90;;;;;;5106623;27;19918;-69
2023/12/14 00:55:56;;;;;;;;;;;7.40;99.90;;;;;;5106847;28;19919;-69
2023/12/14 00:58:22;;;;;;;;;;;7.50;99.90;;;;;;5107359;28;19926;-69
2023/12/14 01:00:48;;;;;;;;;;;7.50;99.90;;;;;;5107242;28;19912;-69
2023/12/14 01:03:13;;;;;;;;;;;7.40;99.90;;;;;;5107219;28;19998;-69
2023/12/14 01:05:39;;;;;;;;;;;7.40;99.90;;;;;;5106553;28;19916;-69
2023/12/14 01:08:04;;;;;;;;;;;7.50;99.90;;;;;;5106555;28;19911;-69
2023/12/14 01:10:31;;;;;;;;;;;7.40;99.90;;;;;;5106773;28;20404;-69
2023/12/14 01:12:56;;;;;;;;;;;7.40;99.90;;;;;;5107280;28;19918;-69
2023/12/14 01:15:22;;;;;;;;;;;7.40;99.90;;;;;;5106570;28;19912;-69
2023/12/14 01:17:47;;;;;;;;;;;7.40;99.90;;;;;;5106923;28;19916;-69
2023/12/14 01:20:13;;;;;;;;;;;7.40;99.90;;;;;;5105008;28;19912;-69
2023/12/14 01:22:38;;;;;;;;;;;7.40;99.90;;;;;;5106565;28;19912;-69
2023/12/14 01:25:04;;;;;;;;;;;7.40;99.90;;;;;;5106816;28;19916;-69
2023/12/14 01:27:29;;;;;;;;;;;7.40;99.90;;;;;;5106174;28;20002;-69
2023/12/14 01:29:55;;;;;;;;;;;7.40;99.90;;;;;;5116477;27;19924;-69
2023/12/14 01:32:20;;;;;;;;;;;7.40;99.90;;;;;;5118523;27;19958;-69
2023/12/14 01:34:46;;;;;;;;;;;7.40;99.90;;;;;;5114756;27;19912;-69
2023/12/14 01:37:11;;;;;;;;;;;7.40;99.90;;;;;;5113877;27;19916;-69
2023/12/14 01:39:37;;;;;;;;;;;7.40;99.90;;;;;;5124131;27;20948;-69
2023/12/14 01:42:02;;;;;;;;;;;7.40;99.90;;;;;;5106637;28;19916;-69
2023/12/14 01:44:28;;;;;;;;;;;7.40;99.90;;;;;;5105875;28;20008;-69
2023/12/14 01:46:53;;;;;;;;;;;7.40;99.90;;;;;;5102162;27;19908;-69
2023/12/14 01:49:19;;;;;;;;;;;7.40;99.90;;;;;;5116676;27;19919;-69
2023/12/14 01:51:44;;;;;;;;;;;7.40;99.90;;;;;;5117207;27;20265;-69
2023/12/14 01:54:10;;;;;;;;;;;7.30;99.90;;;;;;5125461;27;19958;-69
2023/12/14 01:56:35;;;;;;;;;;;7.40;99.90;;;;;;5125982;27;19961;-69
2023/12/14 01:59:01;;;;;;;;;;;7.40;99.90;;;;;;5108700;27;19916;-69
2023/12/14 02:01:34;;;;;;;;;;;7.30;99.90;;;;;;5115443;27;19919;-69
2023/12/14 02:04:00;;;;;;;;;;;7.30;99.90;;;;;;5110787;27;19911;-68
2023/12/14 02:06:26;;;;;;;;;;;7.30;99.90;;;;;;5105243;28;19916;-69
2023/12/14 02:08:52;;;;;;;;;;;7.30;99.90;;;;;;5106041;27;19919;-68
2023/12/14 02:11:17;;;;;;;;;;;7.30;99.90;;;;;;5105918;27;19911;-69
2023/12/14 02:13:43;;;;;;;;;;;7.30;99.90;;;;;;5105731;28;19918;-69
2023/12/14 02:16:09;;;;;;;;;;;7.30;99.90;;;;;;5120993;27;19992;-69
2023/12/14 02:18:34;;;;;;;;;;;7.30;99.90;;;;;;5115949;27;19915;-69
2023/12/14 02:21:00;;;;;;;;;;;7.30;99.90;;;;;;5125943;27;19911;-69
2023/12/14 02:23:25;;;;;;;;;;;7.30;99.90;;;;;;5116182;27;19911;-68
2023/12/14 02:25:51;;;;;;;;;;;7.30;99.90;;;;;;5118311;27;19911;-69
2023/12/14 02:28:17;;;;;;;;;;;7.30;99.90;;;;;;5102439;27;20444;-69
2023/12/14 02:30:42;;;;;;;;;;;7.30;99.90;;;;;;5104921;28;19947;-69
2023/12/14 02:33:08;;;;;;;;;;;7.30;99.90;;;;;;5098273;28;20543;-69
2023/12/14 02:35:33;;;;;;;;;;;7.20;99.90;;;;;;5104893;28;20726;-69
2023/12/14 02:37:59;;;;;;;;;;;7.30;99.90;;;;;;5110648;27;20008;-69
2023/12/14 02:40:24;;;;;;;;;;;7.30;99.90;;;;;;5107466;27;20009;-69
2023/12/14 02:42:50;;;;;;;;;;;7.30;99.90;;;;;;5113335;27;19938;-69
2023/12/14 02:45:15;;;;;;;;;;;7.20;99.90;;;;;;5113265;27;19912;-69
2023/12/14 02:47:41;;;;;;;;;;;7.20;99.90;;;;;;5113834;27;19912;-69
2023/12/14 02:50:07;;;;;;;;;;;7.20;99.90;;;;;;5105342;28;19931;-69
2023/12/14 02:52:32;;;;;;;;;;;7.20;99.90;;;;;;5104891;28;19922;-69
2023/12/14 02:54:58;;;;;;;;;;;7.30;99.90;;;;;;5104917;28;19908;-69
2023/12/14 02:57:23;;;;;;;;;;;7.20;99.90;;;;;;5104778;27;19930;-69
2023/12/14 02:59:49;;;;;;;;;;;7.20;99.90;;;;;;5105161;28;20280;-69
2023/12/14 03:02:14;;;;;;;;;;;7.20;99.90;;;;;;5105227;28;19912;-69
2023/12/14 03:04:40;;;;;;;;;;;7.20;99.90;;;;;;5124720;27;20351;-69
2023/12/14 03:07:06;;;;;;;;;;;7.20;99.90;;;;;;5117597;27;19919;-69
2023/12/14 03:09:31;;;;;;;;;;;7.20;99.90;;;;;;5106787;27;19923;-69
2023/12/14 03:11:57;;;;;;;;;;;7.20;99.90;;;;;;5111589;27;19918;-69
2023/12/14 03:14:23;;;;;;;;;;;7.20;99.90;;;;;;5104920;28;19916;-69
2023/12/14 03:16:48;;;;;;;;;;;7.20;99.90;;;;;;5104943;28;20221;-69
2023/12/14 03:19:15;;;;;;;;;;;7.20;99.90;;;;;;5104966;28;19921;-69
2023/12/14 03:21:40;;;;;;;;;;;7.20;99.90;;;;;;5104786;28;19912;-69
2023/12/14 03:24:06;;;;;;;;;;;7.20;99.90;;;;;;5105071;28;19915;-69
2023/12/14 03:26:31;;;;;;;;;;;7.20;99.90;;;;;;5104470;28;19972;-69
2023/12/14 03:28:57;;;;;;;;;;;7.20;99.90;;;;;;5111319;27;19916;-69
2023/12/14 03:31:22;;;;;;;;;;;7.20;99.90;;;;;;5104532;28;19916;-69
2023/12/14 03:33:48;;;;;;;;;;;7.20;99.90;;;;;;5105301;28;20075;-69
2023/12/14 03:36:13;;;;;;;;;;;7.20;99.90;;;;;;5111932;28;19920;-69
2023/12/14 03:38:39;;;;;;;;;;;7.20;99.90;;;;;;5104689;28;19920;-69
2023/12/14 03:41:04;;;;;;;;;;;7.10;99.90;;;;;;5103301;28;19912;-69
2023/12/14 03:43:30;;;;;;;;;;;7.10;99.90;;;;;;5104552;28;19912;-69
2023/12/14 03:45:55;;;;;;;;;;;7.20;99.90;;;;;;5103019;28;19958;-69
2023/12/14 03:48:21;;;;;;;;;;;7.10;99.90;;;;;;5104577;28;20091;-69
2023/12/14 03:50:46;;;;;;;;;;;7.10;99.90;;;;;;5104715;28;19934;-69
2023/12/14 03:53:12;;;;;;;;;;;7.10;99.90;;;;;;5107079;28;20335;-69
2023/12/14 03:55:37;;;;;;;;;;;7.10;99.90;;;;;;5106566;28;19921;-69
2023/12/14 03:58:03;;;;;;;;;;;7.10;99.90;;;;;;5106918;28;19951;-69
2023/12/14 04:00:28;;;;;;;;;;;7.10;99.90;;;;;;5112015;27;20007;-69
2023/12/14 04:02:54;;;;;;;;;;;7.10;99.90;;;;;;5101624;28;20326;-69
2023/12/14 04:05:19;;;;;;;;;;;7.10;99.90;;;;;;5108131;28;19976;-69
2023/12/14 04:07:45;;;;;;;;;;;7.10;99.90;;;;;;5115534;27;19916;-69
2023/12/14 04:10:11;;;;;;;;;;;7.10;99.90;;;;;;5108744;28;19916;-69
2023/12/14 04:12:37;;;;;;;;;;;7.10;99.90;;;;;;5108201;28;19965;-69
2023/12/14 04:15:03;;;;;;;;;;;7.00;99.90;;;;;;5108266;28;19934;-69
2023/12/14 04:17:30;;;;;;;;;;;7.10;99.90;;;;;;5107783;28;20367;-68
2023/12/14 04:19:55;;;;;;;;;;;7.10;99.90;;;;;;5121528;27;19998;-68
2023/12/14 04:22:21;;;;;;;;;;;7.10;99.90;;;;;;5128140;27;20006;-69
2023/12/14 04:24:46;;;;;;;;;;;7.00;99.90;;;;;;5116647;27;20281;-69
2023/12/14 04:27:12;;;;;;;;;;;7.00;99.90;;;;;;5123422;27;19912;-69
2023/12/14 04:29:37;;;;;;;;;;;7.00;99.90;;;;;;5108187;27;19963;-69
2023/12/14 04:32:03;;;;;;;;;;;7.10;99.90;;;;;;5099448;28;19954;-69
2023/12/14 04:34:28;;;;;;;;;;;7.00;99.90;;;;;;5108718;27;19912;-69
2023/12/14 04:36:57;;;;;;;;;;;7.00;99.90;;;;;;5114631;27;20354;-69
2023/12/14 04:39:24;;;;;;;;;;;7.00;99.90;;;;;;5107392;28;19911;-69
2023/12/14 04:41:50;;;;;;;;;;;7.00;99.90;;;;;;5107486;27;19943;-69
2023/12/14 04:44:16;;;;;;;;;;;7.00;99.90;;;;;;5114945;27;19943;-69
2023/12/14 04:46:42;;;;;;;;;;;7.00;99.90;;;;;;5107133;28;19912;-69
2023/12/14 04:49:07;;;;;;;;;;;7.00;99.90;;;;;;5108069;28;19919;-69
2023/12/14 04:51:33;;;;;;;;;;;7.00;99.90;;;;;;5107877;28;19999;-69
2023/12/14 04:53:58;;;;;;;;;;;7.00;99.90;;;;;;5106395;28;19955;-69
2023/12/14 04:56:24;;;;;;;;;;;7.00;99.90;;;;;;5107243;28;19988;-69
2023/12/14 04:58:49;;;;;;;;;;;7.00;99.90;;;;;;5107783;28;20385;-69
2023/12/14 05:01:15;;;;;;;;;;;7.00;99.90;;;;;;5107116;28;20368;-69
2023/12/14 05:03:40;;;;;;;;;;;7.00;99.90;;;;;;5107226;27;19916;-69
2023/12/14 05:06:07;;;;;;;;;;;7.00;99.90;;;;;;5106890;27;19985;-69
2023/12/14 05:08:32;;;;;;;;;;;7.00;99.90;;;;;;5107374;27;19917;-69
2023/12/14 05:10:58;;;;;;;;;;;7.00;99.90;;;;;;5112755;27;19991;-68
2023/12/14 05:13:24;;;;;;;;;;;7.00;99.90;;;;;;5127829;27;20426;-69
2023/12/14 05:15:51;;;;;;;;;;;7.00;99.90;;;;;;5127558;27;19912;-69
2023/12/14 05:18:17;;;;;;;;;;;7.00;99.90;;;;;;5126252;27;19915;-69
2023/12/14 05:20:42;;;;;;;;;;;7.00;99.90;;;;;;5105592;27;19972;-69
2023/12/14 05:23:08;;;;;;;;;;;6.90;99.90;;;;;;5107071;28;20303;-69
2023/12/14 05:25:34;;;;;;;;;;;7.00;99.90;;;;;;5106170;28;19940;-69
2023/12/14 05:27:59;;;;;;;;;;;6.90;99.90;;;;;;5106717;28;19939;-69
2023/12/14 05:30:25;;;;;;;;;;;6.90;99.90;;;;;;5105552;27;20641;-69
2023/12/14 05:32:50;;;;;;;;;;;7.00;99.90;;;;;;5114675;27;20018;-69
2023/12/14 05:35:16;;;;;;;;;;;6.90;99.90;;;;;;5105236;28;19912;-69
2023/12/14 05:37:41;;;;;;;;;;;6.90;99.90;;;;;;5104624;28;20610;-69
2023/12/14 05:40:07;;;;;;;;;;;6.90;99.90;;;;;;5106696;28;19981;-69
2023/12/14 05:42:33;;;;;;;;;;;6.90;99.90;;;;;;5113653;27;19915;-69
2023/12/14 05:44:59;;;;;;;;;;;6.90;99.90;;;;;;5106791;28;19915;-69
2023/12/14 05:47:26;;;;;;;;;;;6.90;99.90;;;;;;5105743;28;19911;-69
2023/12/14 05:49:51;;;;;;;;;;;6.90;99.90;;;;;;5106060;28;19981;-69
2023/12/14 05:52:17;;;;;;;;;;;6.90;99.90;;;;;;5106177;28;20347;-69
2023/12/14 05:54:42;;;;;;;;;;;6.90;99.90;;;;;;5106133;28;19974;-69
2023/12/14 05:57:08;;;;;;;;;;;6.90;99.90;;;;;;5120846;27;20014;-69
2023/12/14 05:59:33;;;;;;;;;;;6.90;99.90;;;;;;5114989;27;19911;-69
2023/12/14 06:02:00;;;;;;;;;;;6.90;99.90;;;;;;5110809;27;20417;-69
2023/12/14 06:04:26;;;;;;;;;;;6.90;99.90;;;;;;5114410;27;20251;-69
2023/12/14 06:06:51;;;;;;;;;;;6.90;99.90;;;;;;5124881;27;20324;-69
2023/12/14 06:09:19;;;;;;;;;;;6.90;99.90;;;;;;5113752;27;19943;-69
2023/12/14 06:11:44;;;;;;;;;;;6.90;99.90;;;;;;5105758;28;19915;-69
2023/12/14 06:14:10;;;;;;;;;;;6.80;99.90;;;;;;5106001;28;19957;-69
2023/12/14 06:16:35;;;;;;;;;;;6.90;99.90;;;;;;5105571;28;20014;-69
2023/12/14 06:19:01;;;;;;;;;;;6.90;99.90;;;;;;5106008;27;19915;-69
2023/12/14 06:21:28;;;;;;;;;;;6.90;99.90;;;;;;5104186;28;19911;-69
2023/12/14 06:23:55;;;;;;;;;;;6.80;99.90;;;;;;5109270;27;19915;-69
2023/12/14 06:26:20;;;;;;;;;;;6.80;99.90;;;;;;5126299;27;19915;-69
2023/12/14 06:28:46;;;;;;;;;;;6.80;99.90;;;;;;5118584;27;19919;-69
2023/12/14 06:31:12;;;;;;;;;;;6.80;99.90;;;;;;5121855;27;20271;-69
2023/12/14 06:33:38;;;;;;;;;;;6.80;99.90;;;;;;5087088;27;19969;-69
2023/12/14 06:36:04;;;;;;;;;;;6.80;99.90;;;;;;5081704;28;19916;-69
2023/12/14 06:38:31;;;;;;;;;;;6.80;99.90;;;;;;5081754;28;19916;-69
2023/12/14 06:40:56;;;;;;;;;;;6.80;99.90;;;;;;5085375;28;20377;-69
2023/12/14 06:43:22;;;;;;;;;;;6.80;99.90;;;;;;5085394;28;19912;-69
2023/12/14 06:45:47;;;;;;;;;;;6.80;99.90;;;;;;5086971;27;19916;-69
2023/12/14 06:48:13;;;;;;;;;;;6.80;99.90;;;;;;5095592;28;19923;-69
2023/12/14 06:50:38;;;;;;;;;;;6.80;99.90;;;;;;5085895;28;19912;-69
2023/12/14 06:53:04;;;;;;;;;;;6.80;99.90;;;;;;5119315;27;20011;-69
2023/12/14 06:55:30;;;;;;;;;;;6.80;99.90;;;;;;5084428;28;19916;-69
2023/12/14 06:57:55;;;;;;;;;;;6.80;99.90;;;;;;5101919;28;19922;-69
2023/12/14 07:00:21;;;;;;;;;;;6.80;99.90;;;;;;5088841;28;19912;-69
2023/12/14 07:02:46;;;;;;;;;;;6.80;99.90;;;;;;5083410;28;19908;-69
2023/12/14 07:05:12;;;;;;;;;;;6.80;99.90;;;;;;5084684;28;19980;-69
2023/12/14 07:07:37;;;;;;;;;;;6.70;99.90;;;;;;5102853;28;19912;-69
2023/12/14 07:10:03;;;;;;;;;;;6.80;99.90;;;;;;5105129;28;19915;-69
2023/12/14 07:12:28;;;;;;;;;;;6.70;99.90;;;;;;5104724;28;20330;-69
2023/12/14 07:14:54;;;;;;;;;;;6.80;99.90;;;;;;5109118;28;19998;-68
2023/12/14 07:17:19;;;;;;;;;;;6.70;99.90;;;;;;5107365;28;19920;-69
2023/12/14 07:19:45;;;;;;;;;;;6.70;99.90;;;;;;5083394;28;19938;-69
2023/12/14 07:22:10;;;;;;;;;;;6.70;99.90;;;;;;5092943;28;19950;-69
2023/12/14 07:24:36;;;;;;;;;;;6.70;99.90;;;;;;5084250;28;19908;-69
2023/12/14 07:27:01;;;;;;;;;;;6.70;99.90;;;;;;5101595;28;19930;-69
2023/12/14 07:29:27;;;;;;;;;;;6.70;99.90;;;;;;5099227;28;20364;-69
2023/12/14 07:31:52;;;;;;;;;;;6.70;99.90;;;;;;5093033;28;19911;-69
2023/12/14 07:34:20;;;;;;;;;;;6.70;99.90;;;;;;5092462;28;19919;-69
2023/12/14 07:36:45;;;;;;;;;;;6.70;99.90;;;;;;5096346;28;19916;-69
2023/12/14 07:39:11;;;;;;;;;;;6.70;99.90;;;;;;5088393;28;19969;-69
2023/12/14 07:41:37;;;;;;;;;;;6.70;99.90;;;;;;5098569;28;19919;-69
2023/12/14 07:44:04;;;;;;;;;;;6.70;99.90;;;;;;5094699;28;19908;-69
2023/12/14 07:46:30;;;;;;;;;;;6.70;99.90;;;;;;5087744;28;20022;-69
2023/12/14 07:48:55;;;;;;;;;;;6.70;99.90;;;;;;5088403;28;20054;-69
2023/12/14 07:51:21;;;;;;;;;;;6.70;99.90;;;;;;5088181;28;19912;-69
2023/12/14 07:53:46;;;;;;;;;;;6.70;99.90;;;;;;5096147;28;20294;-69
2023/12/14 07:56:12;;;;;;;;;;;6.70;99.90;;;;;;5096311;28;19977;-69
2023/12/14 07:58:37;;;;;;;;;;;6.70;99.90;;;;;;5087781;28;19961;-69
2023/12/14 08:01:03;;;;;;;;;;;6.70;99.90;;;;;;5108401;27;20019;-69
2023/12/14 08:03:28;;;;;;;;;;;6.70;99.90;;;;;;5107018;27;19908;-69
2023/12/14 08:05:54;;;;;;;;;;;6.70;99.90;;;;;;5108067;27;19941;-69
2023/12/14 08:08:19;;;;;;;;;;;6.60;99.90;;;;;;5100581;28;19964;-69
2023/12/14 08:10:45;;;;;;;;;;;6.60;99.90;;;;;;5096059;28;19952;-69
2023/12/14 08:13:10;;;;;;;;;;;6.60;99.90;;;;;;5094488;28;19912;-69
2023/12/14 08:15:36;;;;;;;;;;;6.70;99.90;;;;;;5100638;27;19908;-69
2023/12/14 08:18:02;;;;;;;;;;;6.60;99.90;;;;;;5114727;27;19915;-69
2023/12/14 08:20:27;;;;;;;;;;;6.60;99.90;;;;;;5098752;28;19916;-69
2023/12/14 08:22:53;;;;;;;;;;;6.60;99.90;;;;;;5087670;27;20515;-69
2023/12/14 08:25:18;;;;;;;;;;;6.60;99.90;;;;;;5119853;27;19919;-69
2023/12/14 08:27:44;;;;;;;;;;;6.60;99.90;;;;;;5088895;28;19916;-69
2023/12/14 08:30:10;;;;;;;;;;;6.60;99.90;;;;;;5103380;28;19920;-69
2023/12/14 08:32:36;;;;;;;;;;;6.60;99.90;;;;;;5089223;27;19923;-69
2023/12/14 08:35:01;;;;;;;;;;;6.60;99.90;;;;;;5101278;28;19911;-69
2023/12/14 08:37:27;;;;;;;;;;;6.60;99.90;;;;;;5106993;28;19916;-69
2023/12/14 08:39:52;;;;;;;;;;;6.60;99.90;;;;;;5086516;28;19912;-69
2023/12/14 08:42:18;;;;;;;;;;;6.60;99.90;;;;;;5095135;28;19964;-69
2023/12/14 08:44:43;;;;;;;;;;;6.60;99.90;;;;;;5107514;28;22201;-69
2023/12/14 08:47:09;;;;;;;;;;;6.60;99.90;;;;;;5099214;27;20329;-69
2023/12/14 08:49:34;;;;;;;;;;;6.60;99.90;;;;;;5089044;28;19949;-69
2023/12/14 08:52:00;;;;;;;;;;;6.60;99.90;;;;;;5087387;28;19919;-69
2023/12/14 08:54:26;;;;;;;;;;;6.60;99.90;;;;;;5095778;28;19912;-69
2023/12/14 08:56:52;;;;;;;;;;;6.60;99.90;;;;;;5098925;28;19912;-69
2023/12/14 08:59:19;;;;;;;;;;;6.60;99.90;;;;;;5102957;27;20720;-69
2023/12/14 09:01:45;;;;;;;;;;;6.60;99.90;;;;;;5095860;27;19974;-69
2023/12/14 09:04:11;;;;;;;;;;;6.60;99.90;;;;;;5119511;27;19912;-69
2023/12/14 09:06:36;;;;;;;;;;;6.60;99.90;;;;;;5104658;28;19918;-69
2023/12/14 09:09:02;;;;;;;;;;;6.60;99.90;;;;;;5102076;28;20098;-69
2023/12/14 09:11:28;;;;;;;;;;;6.60;99.90;;;;;;5104059;28;19935;-69
2023/12/14 09:13:54;;;;;;;;;;;6.60;99.90;;;;;;5107313;28;20257;-69
2023/12/14 09:16:19;;;;;;;;;;;6.60;99.90;;;;;;5098891;28;19939;-69
2023/12/14 09:18:45;;;;;;;;;;;6.60;99.90;;;;;;5104408;28;20749;-69
2023/12/14 09:21:10;;;;;;;;;;;6.60;99.90;;;;;;5097203;27;19912;-69
2023/12/14 09:23:36;;;;;;;;;;;6.60;99.90;;;;;;5093773;28;19912;-69
2023/12/14 09:26:01;;;;;;;;;;;6.50;99.90;;;;;;5085752;28;20357;-69
2023/12/14 09:28:27;;;;;;;;;;;6.60;99.90;;;;;;5085753;28;20391;-69
2023/12/14 09:30:52;;;;;;;;;;;6.60;99.90;;;;;;5093867;28;20315;-69
2023/12/14 09:33:18;;;;;;;;;;;6.60;99.90;;;;;;5085851;28;19912;-69
2023/12/14 09:35:43;;;;;;;;;;;6.50;99.90;;;;;;5085014;28;19924;-69
2023/12/14 09:38:09;;;;;;;;;;;6.50;99.90;;;;;;5100121;28;19915;-69
2023/12/14 09:40:35;;;;;;;;;;;6.60;99.90;;;;;;5105767;28;20437;-69
2023/12/14 09:43:00;;;;;;;;;;;6.60;99.90;;;;;;5104477;28;19912;-69
2023/12/14 09:45:29;;;;;;;;;;;6.60;99.90;;;;;;5105055;28;20273;-69
2023/12/14 09:47:59;;;;;;;;;;;6.50;99.90;;;;;;5109812;27;19943;-69
2023/12/14 09:50:25;;;;;;;;;;;6.50;99.90;;;;;;5108808;27;19912;-69
2023/12/14 09:52:51;;;;;;;;;;;6.50;99.90;;;;;;5097201;28;19922;-69
2023/12/14 09:55:16;;;;;;;;;;;6.50;99.90;;;;;;5098582;28;19957;-69
2023/12/14 09:57:42;;;;;;;;;;;6.50;99.90;;;;;;5107759;27;19919;-69
2023/12/14 10:00:10;;;;;;;;;;;6.50;99.90;;;;;;5102490;28;19970;-69
2023/12/14 10:02:36;;;;;;;;;;;6.50;99.90;;;;;;5104527;28;19912;-69
2023/12/14 10:05:03;;;;;;;;;;;6.50;99.90;;;;;;5104921;28;19918;-69
2023/12/14 10:07:30;;;;;;;;;;;6.50;99.90;;;;;;5087833;28;19915;-69
2023/12/14 10:10:08;;;;;;;;;;;6.50;99.90;;;;;;5093574;27;19998;-69
2023/12/14 10:12:39;;;;;;;;;;;6.50;99.90;;;;;;5103584;28;19981;-69
2023/12/14 10:15:06;;;;;;;;;;;6.50;99.90;;;;;;5105942;28;19915;-69
2023/12/14 10:17:32;;;;;;;;;;;6.50;99.90;;;;;;5103647;28;20014;-69
2023/12/14 10:19:57;;;;;;;;;;;6.50;99.90;;;;;;5104174;28;20026;-69
2023/12/14 10:22:25;;;;;;;;;;;6.50;99.90;;;;;;5103989;28;20093;-69
2023/12/14 10:24:51;;;;;;;;;;;6.50;99.90;;;;;;5092946;28;19988;-69
2023/12/14 10:27:16;;;;;;;;;;;6.50;99.90;;;;;;5092837;28;19916;-69
2023/12/14 10:29:44;;;;;;;;;;;6.50;99.90;;;;;;5089259;27;20031;-69
2023/12/14 10:32:11;;;;;;;;;;;6.50;99.90;;;;;;5100680;27;19942;-69
2023/12/14 10:34:37;;;;;;;;;;;6.50;99.90;;;;;;5097225;27;19912;-69
2023/12/14 10:37:04;;;;;;;;;;;6.50;99.90;;;;;;5095849;28;19923;-69
2023/12/14 10:39:31;;;;;;;;;;;6.50;99.90;;;;;;5103623;28;19912;-69
2023/12/14 10:41:57;;;;;;;;;;;6.50;99.90;;;;;;5084374;28;20532;-69
2023/12/14 10:44:25;;;;;;;;;;;6.50;99.90;;;;;;5098586;28;19923;-69
2023/12/14 10:46:53;;;;;;;;;;;6.50;99.90;;;;;;5108994;27;19952;-69
2023/12/14 10:49:18;;;;;;;;;;;6.50;99.90;;;;;;5107444;27;20360;-69
2023/12/14 10:51:44;;;;;;;;;;;6.50;99.90;;;;;;5113598;27;19947;-69
2023/12/14 10:54:10;;;;;;;;;;;6.50;99.90;;;;;;5095897;28;19912;-69
2023/12/14 10:56:36;;;;;;;;;;;6.50;99.90;;;;;;5103877;28;19918;-69
2023/12/14 10:59:02;;;;;;;;;;;6.50;99.90;;;;;;5113009;27;19916;-69
2023/12/14 11:01:32;;;;;;;;;;;6.50;99.90;;;;;;5105053;27;19915;-69
2023/12/14 11:03:58;;;;;;;;;;;6.50;99.90;;;;;;5104192;28;19912;-69
2023/12/14 11:06:24;;;;;;;;;;;6.50;99.90;;;;;;5104230;28;20018;-69
2023/12/14 11:08:54;;;;;;;;;;;6.50;99.90;;;;;;5104146;28;20026;-69
2023/12/14 11:11:20;;;;;;;;;;;6.50;99.90;;;;;;5104347;28;19916;-69
2023/12/14 11:13:50;;;;;;;;;;;6.50;99.90;;;;;;5092539;28;19943;-69
2023/12/14 11:16:15;;;;;;;;;;;6.50;99.90;;;;;;5099106;28;19912;-69
2023/12/14 11:18:41;;;;;;;;;;;6.50;99.90;;;;;;5101843;28;20028;-69
2023/12/14 11:21:06;;;;;;;;;;;6.50;99.90;;;;;;5089363;28;19915;-69
2023/12/14 11:23:33;;;;;;;;;;;6.50;99.90;;;;;;5103040;28;19916;-69
2023/12/14 11:25:59;;;;;;;;;;;6.60;99.90;;;;;;5105096;27;19908;-69
2023/12/14 11:28:26;;;;;;;;;;;6.60;99.90;;;;;;5104003;28;19965;-69
2023/12/14 11:30:52;;;;;;;;;;;6.60;99.90;;;;;;5096287;28;19912;-69
2023/12/14 11:33:17;;;;;;;;;;;6.60;99.90;;;;;;5091013;28;19943;-69
2023/12/14 11:35:43;;;;;;;;;;;6.60;99.90;;;;;;5094834;28;19923;-69
2023/12/14 11:38:12;;;;;;;;;;;6.60;99.90;;;;;;5098222;28;20440;-69
2023/12/14 11:40:39;;;;;;;;;;;6.60;99.90;;;;;;5091756;28;19972;-69
2023/12/14 11:43:08;;;;;;;;;;;6.60;99.90;;;;;;5097322;28;19912;-69
2023/12/14 11:45:34;;;;;;;;;;;6.60;99.90;;;;;;5093423;28;20304;-69
2023/12/14 11:47:59;;;;;;;;;;;6.60;99.90;;;;;;5108011;27;19919;-69
2023/12/14 11:50:26;;;;;;;;;;;6.60;99.90;;;;;;5124615;27;20326;-69
2023/12/14 11:52:53;;;;;;;;;;;6.60;99.90;;;;;;5115411;27;19964;-69
2023/12/14 11:55:21;;;;;;;;;;;6.60;99.90;;;;;;5108334;27;19999;-69
2023/12/14 11:57:47;;;;;;;;;;;6.60;99.90;;;;;;5094759;28;20272;-69
2023/12/14 12:00:13;;;;;;;;;;;6.60;99.90;;;;;;5093811;28;19915;-69
2023/12/14 12:02:40;;;;;;;;;;;6.60;99.90;;;;;;5101812;28;19931;-69
2023/12/14 12:05:06;;;;;;;;;;;6.60;99.90;;;;;;5099146;28;19964;-69
2023/12/14 12:07:32;;;;;;;;;;;6.60;99.90;;;;;;5105590;27;20418;-69
2023/12/14 12:09:58;;;;;;;;;;;6.60;99.90;;;;;;5107436;28;20003;-69
2023/12/14 12:12:23;;;;;;;;;;;6.60;99.90;;;;;;5116138;27;19998;-69
2023/12/14 12:14:52;;;;;;;;;;;6.60;99.90;;;;;;5089519;27;20067;-69
2023/12/14 12:17:19;;;;;;;;;;;6.60;99.90;;;;;;5106906;28;20014;-69
2023/12/14 12:19:45;;;;;;;;;;;6.60;99.90;;;;;;5106617;28;19912;-69
2023/12/14 12:22:11;;;;;;;;;;;6.60;99.90;;;;;;5097199;28;19932;-69
2023/12/14 12:24:37;;;;;;;;;;;6.60;99.90;;;;;;5089872;28;19912;-69
2023/12/14 12:27:04;;;;;;;;;;;6.60;99.90;;;;;;5103345;27;20355;-69
2023/12/14 12:29:29;;;;;;;;;;;6.60;99.90;;;;;;5106076;27;19919;-69
2023/12/14 12:31:55;;;;;;;;;;;6.60;99.90;;;;;;5098662;27;20372;-69
2023/12/14 12:34:20;;;;;;;;;;;6.60;99.90;;;;;;5090910;28;19912;-69
2023/12/14 12:36:46;;;;;;;;;;;6.60;99.90;;;;;;5127148;27;19911;-69
2023/12/14 12:39:12;;;;;;;;;;;6.60;99.90;;;;;;5094796;28;19916;-69
2023/12/14 12:41:37;;;;;;;;;;;6.60;99.90;;;;;;5104161;28;20364;-69
2023/12/14 12:44:08;;;;;;;;;;;6.60;99.90;;;;;;5098290;28;19919;-69
2023/12/14 12:46:34;;;;;;;;;;;6.60;99.90;;;;;;5106005;27;19915;-69
2023/12/14 12:49:00;;;;;;;;;;;6.60;99.90;;;;;;5106472;27;19912;-69
2023/12/14 12:51:26;;;;;;;;;;;6.60;99.90;;;;;;5106636;28;19912;-69
2023/12/14 12:53:52;;;;;;;;;;;6.60;99.90;;;;;;5102738;27;20349;-69
2023/12/14 12:56:17;;;;;;;;;;;6.60;99.90;;;;;;5101152;28;19918;-69
2023/12/14 12:58:43;;;;;;;;;;;6.50;99.90;;;;;;5103791;28;19916;-69
2023/12/14 13:01:08;;;;;;;;;;;6.50;99.90;;;;;;5104497;28;19908;-69
2023/12/14 13:03:34;;;;;;;;;;;6.50;99.90;;;;;;5105815;28;19912;-69
2023/12/14 13:05:59;;;;;;;;;;;6.50;99.90;;;;;;5105865;28;19911;-69
2023/12/14 13:08:25;;;;;;;;;;;6.50;99.90;;;;;;5098250;28;20576;-69
2023/12/14 13:10:51;;;;;;;;;;;6.50;99.90;;;;;;5093837;28;19934;-69
2023/12/14 13:13:17;;;;;;;;;;;6.50;99.90;;;;;;5094206;28;19913;-69
2023/12/14 13:15:43;;;;;;;;;;;6.50;99.90;;;;;;5103731;28;19935;-69
2023/12/14 13:18:09;;;;;;;;;;;6.50;99.90;;;;;;5110273;27;19912;-69
2023/12/14 13:20:35;;;;;;;;;;;6.50;99.90;;;;;;5103116;28;19919;-69
2023/12/14 13:23:01;;;;;;;;;;;6.60;99.90;;;;;;5097933;28;19911;-69
2023/12/14 13:25:26;;;;;;;;;;;6.50;99.90;;;;;;5103482;28;19985;-69
2023/12/14 13:27:52;;;;;;;;;;;6.50;99.90;;;;;;5105087;28;20024;-69
2023/12/14 13:30:19;;;;;;;;;;;6.50;99.90;;;;;;5102486;27;19955;-69
2023/12/14 13:32:44;;;;;;;;;;;6.50;99.90;;;;;;5102951;28;20403;-69
2023/12/14 13:35:10;;;;;;;;;;;6.50;99.90;;;;;;5093426;28;19912;-69
2023/12/14 13:37:35;;;;;;;;;;;6.50;99.90;;;;;;5102424;28;20265;-69
2023/12/14 13:40:03;;;;;;;;;;;6.50;99.90;;;;;;5101083;28;20311;-69
2023/12/14 13:42:28;;;;;;;;;;;6.50;99.90;;;;;;5102067;28;20372;-69
2023/12/14 13:44:55;;;;;;;;;;;6.50;99.90;;;;;;5084258;28;20287;-69
2023/12/14 13:47:21;;;;;;;;;;;6.50;99.90;;;;;;5100601;28;20392;-69
2023/12/14 13:49:47;;;;;;;;;;;6.50;99.90;;;;;;5104745;27;20007;-69
2023/12/14 13:52:12;;;;;;;;;;;6.50;99.90;;;;;;5096526;28;20353;-69
2023/12/14 13:54:38;;;;;;;;;;;6.50;99.90;;;;;;5095708;28;19992;-69
2023/12/14 13:57:03;;;;;;;;;;;6.50;99.90;;;;;;5091249;28;19912;-69
2023/12/14 13:59:29;;;;;;;;;;;6.50;99.90;;;;;;5087982;28;19922;-69
2023/12/14 14:01:54;;;;;;;;;;;6.50;99.90;;;;;;5087779;28;19912;-69
2023/12/14 14:04:20;;;;;;;;;;;6.50;99.90;;;;;;5089305;28;19912;-69
2023/12/14 14:06:46;;;;;;;;;;;6.50;99.90;;;;;;5084047;28;19912;-69
2023/12/14 14:09:12;;;;;;;;;;;6.50;99.90;;;;;;5092840;28;20626;-69
2023/12/14 14:11:37;;;;;;;;;;;6.40;99.90;;;;;;5103507;27;19950;-69
2023/12/14 14:14:03;;;;;;;;;;;6.50;99.90;;;;;;5094237;28;20052;-69
2023/12/14 14:16:29;;;;;;;;;;;6.50;99.90;;;;;;5098981;28;19919;-69
2023/12/14 14:18:55;;;;;;;;;;;6.50;99.90;;;;;;5088273;28;19936;-69
2023/12/14 14:21:20;;;;;;;;;;;6.40;99.90;;;;;;5112884;27;19912;-69